Time;durP1;ratioP1;P1;durP2;ratioP2;P2;SDS_P1;SDS_P2;PMS_P1;PMS_P2;Temp;Humidity;BMP_temperature;BMP_pressure;BME280_temperature;BME280_humidity;BME280_pressure;Samples;Min_cycle;Max_cycle;Signal;HPM_P1;HPM_P2
2022/01/02 00:00:43;;;;;;;32.87;4.27;;;8.70;99.90;;;9.53;100.00;98742.19;5042689;28;20544;-82
2022/01/02 00:03:20;;;;;;;4.90;3.43;;;8.70;99.90;;;9.53;100.00;98731.75;5047354;28;20875;-82
2022/01/02 00:05:53;;;;;;;8.00;3.40;;;8.70;99.90;;;9.43;100.00;98718.06;5040976;28;20488;-82
2022/01/02 00:08:23;;;;;;;8.30;3.80;;;8.70;99.90;;;9.40;100.00;98707.13;5044675;28;20453;-82
2022/01/02 00:10:58;;;;;;;19.07;4.00;;;8.50;99.90;;;9.37;100.00;98700.41;5046154;28;20598;-82
2022/01/02 00:13:33;;;;;;;5.03;3.17;;;8.50;99.90;;;9.33;100.00;98709.56;5040897;28;20538;-82
2022/01/02 00:16:07;;;;;;;6.40;3.23;;;8.50;99.90;;;9.26;100.00;98715.59;5052698;28;20460;-82
2022/01/02 00:18:47;;;;;;;5.43;3.50;;;8.30;99.90;;;9.25;100.00;98704.34;5046153;28;20465;-82
2022/01/02 00:21:21;;;;;;;5.27;2.90;;;8.40;99.90;;;9.19;100.00;98686.72;5046531;28;20589;-82
2022/01/02 00:23:59;;;;;;;9.63;4.00;;;8.40;99.90;;;9.11;100.00;98691.94;5048497;28;20462;-82
2022/01/02 00:26:38;;;;;;;3.70;3.40;;;8.20;99.90;;;9.04;100.00;98694.38;5047874;28;20480;-82
2022/01/02 00:29:09;;;;;;;9.70;4.47;;;8.10;99.90;;;9.07;100.00;98699.25;5047495;28;20841;-82
2022/01/02 00:31:39;;;;;;;7.33;4.03;;;8.10;99.90;;;9.02;100.00;98685.09;5044678;28;20997;-82
2022/01/02 00:34:12;;;;;;;5.10;3.47;;;8.10;99.90;;;8.98;100.00;98686.38;5046053;28;20457;-81
2022/01/02 00:36:42;;;;;;;9.20;4.03;;;8.00;99.90;;;9.01;100.00;98681.66;5043534;28;20458;-81
2022/01/02 00:39:11;;;;;;;5.23;3.50;;;8.10;99.90;;;9.02;100.00;98675.44;5048064;28;20488;-82
2022/01/02 00:41:49;;;;;;;6.20;3.87;;;8.10;99.90;;;8.99;100.00;98672.34;5047760;28;20547;-82
2022/01/02 00:44:32;;;;;;;7.40;3.80;;;8.10;99.90;;;8.92;100.00;98660.94;5046853;28;21272;-82
2022/01/02 00:47:12;;;;;;;4.57;3.60;;;8.10;99.90;;;8.86;100.00;98658.97;5047632;28;20467;-82
2022/01/02 00:50:07;;;;;;;11.33;3.67;;;7.90;99.90;;;8.81;100.00;98662.06;5045848;28;20453;-82
2022/01/02 00:52:40;;;;;;;6.67;4.37;;;7.80;99.90;;;8.82;100.00;98655.84;5047295;28;20472;-82
2022/01/02 00:55:16;;;;;;;63.30;10.67;;;7.90;99.90;;;8.72;100.00;98649.16;5047930;28;20464;-82
2022/01/02 00:57:56;;;;;;;50.50;11.53;;;7.70;99.90;;;8.77;100.00;98652.09;5047289;28;20702;-82
2022/01/02 01:00:27;;;;;;;49.50;10.00;;;7.90;99.90;;;8.76;100.00;98648.69;5043229;28;20965;-82
2022/01/02 01:03:01;;;;;;;18.83;6.10;;;7.90;99.90;;;8.74;100.00;98649.81;5045173;28;20492;-82
2022/01/02 01:05:36;;;;;;;14.40;5.57;;;7.90;99.90;;;8.67;100.00;98648.84;5042352;28;20460;-82
2022/01/02 01:08:10;;;;;;;14.03;4.70;;;7.80;99.90;;;8.59;100.00;98660.88;5047947;28;20490;-82
2022/01/02 01:10:44;;;;;;;9.33;4.20;;;7.70;99.90;;;8.67;100.00;98665.28;5043227;28;20470;-82
2022/01/02 01:13:14;;;;;;;4.97;3.73;;;7.90;99.90;;;8.71;100.00;98663.97;5046102;28;20928;-82
2022/01/02 01:15:44;;;;;;;6.17;4.27;;;7.90;99.90;;;8.70;100.00;98654.53;5047072;28;20461;-82
2022/01/02 01:18:13;;;;;;;6.40;4.50;;;7.80;99.90;;;8.63;100.00;98655.34;5048156;28;20458;-82
2022/01/02 01:20:45;;;;;;;14.43;4.60;;;7.90;99.90;;;8.51;100.00;98653.03;5046458;28;20911;-82
2022/01/02 01:23:17;;;;;;;6.00;3.70;;;7.60;99.90;;;8.55;100.00;98651.72;5056086;28;20870;-82
2022/01/02 01:25:50;;;;;;;4.33;3.67;;;7.60;99.90;;;8.56;100.00;98653.38;5047574;28;20481;-82
2022/01/02 01:28:23;;;;;;;6.30;3.33;;;7.60;99.90;;;8.51;100.00;98647.00;5048235;28;20556;-82
2022/01/02 01:30:54;;;;;;;14.80;5.40;;;7.60;99.90;;;8.47;100.00;98643.88;5045808;28;20465;-82
2022/01/02 01:33:23;;;;;;;14.13;4.90;;;7.60;99.90;;;8.40;100.00;98642.88;5046783;28;20460;-82
2022/01/02 01:35:56;;;;;;;14.80;6.53;;;7.50;99.90;;;8.41;100.00;98643.72;5045599;28;20677;-82
2022/01/02 01:38:26;;;;;;;11.07;5.00;;;7.50;99.90;;;8.42;100.00;98648.78;5047139;28;20461;-82
2022/01/02 01:41:04;;;;;;;8.10;4.00;;;7.40;99.90;;;8.39;100.00;98638.66;5046712;28;20942;-82
2022/01/02 01:43:40;;;;;;;4.90;3.83;;;7.50;99.90;;;8.41;100.00;98631.50;5045803;28;20574;-82
2022/01/02 01:46:10;;;;;;;5.43;3.53;;;7.50;99.90;;;8.44;100.00;98641.59;5042549;28;20465;-82
2022/01/02 01:48:41;;;;;;;6.60;4.10;;;7.50;99.90;;;8.46;100.00;98644.06;5052971;28;20541;-82
2022/01/02 01:51:12;;;;;;;8.60;4.10;;;7.60;99.90;;;8.41;100.00;98639.31;5046164;28;20492;-82
2022/01/02 01:53:42;;;;;;;6.80;4.17;;;7.50;99.90;;;8.30;100.00;98631.78;5041274;28;20461;-82
2022/01/02 01:56:11;;;;;;;6.63;3.77;;;7.30;99.90;;;8.34;100.00;98621.88;5048605;28;20954;-82
2022/01/02 01:58:41;;;;;;;10.50;4.43;;;7.40;99.90;;;8.33;100.00;98631.47;5047849;28;20441;-82
2022/01/02 02:01:10;;;;;;;17.40;5.30;;;7.40;99.90;;;8.30;100.00;98631.78;5048268;28;20449;-82
2022/01/02 02:04:08;;;;;;;9.20;4.60;;;7.40;99.90;;;8.31;100.00;98627.41;5046950;28;20892;-82
2022/01/02 02:06:40;;;;;;;12.30;3.90;;;7.40;99.90;;;8.20;100.00;98628.47;5048318;28;20539;-82
2022/01/02 02:09:10;;;;;;;9.70;4.60;;;7.30;99.90;;;8.17;100.00;98631.38;5040929;28;21130;-82
2022/01/02 02:11:41;;;;;;;12.13;4.10;;;7.30;99.90;;;8.19;100.00;98644.28;5043218;28;20826;-82
2022/01/02 02:14:12;;;;;;;9.47;4.57;;;7.30;99.90;;;8.16;100.00;98644.59;5048487;28;20909;-82
2022/01/02 02:16:41;;;;;;;16.87;5.23;;;7.30;99.90;;;8.14;100.00;98639.53;5048238;28;20519;-82
2022/01/02 02:19:12;;;;;;;8.30;5.13;;;7.30;99.90;;;8.17;100.00;98636.59;5051643;28;20460;-82
2022/01/02 02:21:44;;;;;;;11.77;4.70;;;7.30;99.90;;;8.09;100.00;98631.34;5048985;28;20496;-82
2022/01/02 02:24:15;;;;;;;13.20;5.57;;;7.20;99.90;;;8.04;100.00;98623.19;5054869;28;20528;-82
2022/01/02 02:26:49;;;;;;;15.63;5.67;;;7.10;99.90;;;8.09;100.00;98619.16;5044908;28;20593;-82
2022/01/02 02:29:19;;;;;;;29.73;5.83;;;7.20;99.90;;;8.16;100.00;98619.31;5038120;28;20461;-82
2022/01/02 02:31:48;;;;;;;12.70;4.63;;;7.30;99.90;;;8.14;100.00;98617.88;5045638;28;20480;-82
2022/01/02 02:34:19;;;;;;;29.73;5.83;;;7.30;99.90;;;8.09;100.00;98613.13;5045324;28;20470;-82
2022/01/02 02:36:51;;;;;;;26.43;5.90;;;7.20;99.90;;;8.01;100.00;98615.72;5052611;28;21182;-82
2022/01/02 02:39:20;;;;;;;21.50;5.87;;;7.10;99.90;;;8.02;100.00;98604.28;5058565;28;20518;-82
2022/01/02 02:41:51;;;;;;;13.03;4.90;;;7.10;99.90;;;8.02;100.00;98605.13;5052934;28;20483;-82
2022/01/02 02:44:35;;;;;;;31.87;6.20;;;7.10;99.90;;;8.05;100.00;98598.81;5045834;28;20501;-82
2022/01/02 02:49:54;;;;;;;14.60;5.87;;;6.90;99.90;;;7.95;100.00;98590.28;5049902;28;20832;-82
2022/01/02 02:52:35;;;;;;;12.20;5.63;;;7.00;99.90;;;7.91;100.00;98584.56;5049966;28;20547;-82
2022/01/02 02:55:06;;;;;;;21.13;5.17;;;7.00;99.90;;;7.87;100.00;98588.47;5042650;28;20477;-82
2022/01/02 02:57:38;;;;;;;13.13;5.67;;;6.90;99.90;;;7.85;100.00;98584.38;5044481;28;20465;-81
2022/01/02 03:00:15;;;;;;;11.10;4.90;;;6.90;99.90;;;7.89;100.00;98577.88;5054625;28;20952;-82
2022/01/02 03:02:47;;;;;;;9.30;6.00;;;7.00;99.90;;;7.95;100.00;98569.44;5045271;28;20536;-82
2022/01/02 03:05:19;;;;;;;14.37;5.50;;;7.10;99.90;;;7.99;100.00;98565.56;5051390;28;20905;-82
2022/01/02 03:07:51;;;;;;;20.97;5.47;;;7.10;99.90;;;7.97;100.00;98550.09;5050191;28;20460;-82
2022/01/02 03:10:23;;;;;;;12.63;5.30;;;7.20;99.90;;;7.84;100.00;98547.13;5049256;28;20470;-82
2022/01/02 03:12:53;;;;;;;11.10;5.40;;;7.00;99.90;;;7.91;100.00;98550.72;5046919;28;20503;-82
2022/01/02 03:15:23;;;;;;;11.83;4.97;;;7.10;99.90;;;7.92;100.00;98535.91;5042421;28;20496;-82
2022/01/02 03:17:55;;;;;;;8.80;5.17;;;7.10;99.90;;;7.85;100.00;98532.31;5045203;28;20452;-82
2022/01/02 03:20:26;;;;;;;9.87;4.97;;;7.10;99.90;;;7.87;100.00;98549.41;5044652;28;20527;-82
2022/01/02 03:22:56;;;;;;;7.53;4.93;;;7.10;99.90;;;7.84;100.00;98546.31;5044099;28;20469;-82
2022/01/02 03:25:27;;;;;;;9.67;5.60;;;7.00;99.90;;;7.80;100.00;98535.41;5044389;28;20477;-82
2022/01/02 03:27:57;;;;;;;7.17;4.40;;;7.00;99.90;;;7.73;100.00;98533.56;5045603;28;20465;-82
2022/01/02 03:30:27;;;;;;;6.83;4.33;;;6.90;99.90;;;7.71;100.00;98532.91;5041597;28;20519;-82
2022/01/02 03:32:57;;;;;;;8.90;4.70;;;6.80;99.90;;;7.74;100.00;98530.00;5045322;28;21254;-82
2022/01/02 03:35:28;;;;;;;7.70;4.57;;;6.90;99.90;;;7.70;100.00;98537.31;5044743;28;21306;-82
2022/01/02 03:37:58;;;;;;;8.00;4.80;;;6.80;99.90;;;7.69;100.00;98527.06;5043734;28;20472;-82
2022/01/02 03:40:29;;;;;;;7.30;4.23;;;6.90;99.90;;;7.69;100.00;98527.06;5043464;28;20465;-82
2022/01/02 03:42:58;;;;;;;9.00;5.00;;;6.90;99.90;;;7.72;100.00;98516.31;5046708;28;20945;-82
2022/01/02 03:45:28;;;;;;;6.40;4.13;;;6.90;99.90;;;7.74;100.00;98522.19;5043181;28;20457;-82
2022/01/02 03:47:57;;;;;;;5.30;4.20;;;6.90;99.90;;;7.79;100.00;98519.94;5043530;28;20454;-82
2022/01/02 03:50:27;;;;;;;10.30;4.97;;;6.90;99.90;;;7.79;100.00;98504.31;5052242;28;20463;-82
2022/01/02 03:52:59;;;;;;;5.03;4.10;;;7.00;99.90;;;7.77;100.00;98498.47;5046746;28;20622;-82
2022/01/02 03:55:28;;;;;;;9.30;5.40;;;7.00;99.90;;;7.75;100.00;98500.38;5049228;28;20853;-82
2022/01/02 03:57:57;;;;;;;5.63;4.30;;;6.80;99.90;;;7.77;100.00;98495.84;5047752;28;20461;-82
2022/01/02 04:00:28;;;;;;;14.27;4.90;;;6.90;99.90;;;7.74;100.00;98498.78;5055438;28;20462;-81
2022/01/02 04:02:57;;;;;;;9.77;4.70;;;7.00;99.90;;;7.68;100.00;98488.97;5046188;28;20973;-82
2022/01/02 04:05:28;;;;;;;6.27;4.20;;;6.80;99.90;;;7.69;100.00;98501.03;5048979;28;20503;-82
2022/01/02 04:07:59;;;;;;;11.90;5.00;;;6.80;99.90;;;7.71;100.00;98501.66;5053428;28;20463;-82
2022/01/02 04:10:29;;;;;;;8.47;4.93;;;6.80;99.90;;;7.73;100.00;98507.56;5048351;28;20462;-82
2022/01/02 04:12:59;;;;;;;8.67;5.70;;;6.90;99.90;;;7.67;100.00;98500.38;5048822;28;20468;-82
2022/01/02 04:15:30;;;;;;;11.40;5.80;;;6.80;99.90;;;7.58;100.00;98507.31;5061149;28;20546;-82
2022/01/02 04:18:01;;;;;;;7.37;6.03;;;6.70;99.90;;;7.65;100.00;98484.91;5049165;28;20464;-82
2022/01/02 04:20:31;;;;;;;8.93;5.37;;;6.70;99.90;;;7.62;100.00;98481.81;5052202;28;20493;-82
2022/01/02 04:23:03;;;;;;;8.70;5.13;;;6.70;99.90;;;7.60;100.00;98482.78;5048838;28;20491;-82
2022/01/02 04:25:33;;;;;;;7.93;5.13;;;6.70;99.90;;;7.66;100.00;98485.72;5046921;28;20989;-82
2022/01/02 04:28:02;;;;;;;7.87;4.60;;;6.70;99.90;;;7.64;100.00;98477.25;5045206;28;20465;-82
2022/01/02 04:30:36;;;;;;;9.23;5.40;;;6.80;99.90;;;7.67;100.00;98463.94;5045527;28;20469;-82
2022/01/02 04:33:05;;;;;;;8.90;5.23;;;6.80;99.90;;;7.72;100.00;98469.47;5044728;28;20481;-82
2022/01/02 04:35:36;;;;;;;8.53;5.47;;;6.90;99.90;;;7.74;100.00;98470.16;5049061;28;20448;-82
2022/01/02 04:38:08;;;;;;;7.63;5.00;;;6.90;99.90;;;7.69;100.00;98475.00;5047987;28;20457;-82
2022/01/02 04:40:38;;;;;;;10.33;5.33;;;6.90;99.90;;;7.69;100.00;98469.78;5037296;28;20895;-82
2022/01/02 04:43:08;;;;;;;8.43;4.50;;;6.80;99.90;;;7.63;100.00;98470.44;5055067;28;20449;-82
2022/01/02 04:45:38;;;;;;;7.73;5.17;;;6.70;99.90;;;7.67;100.00;98477.75;5040371;28;20489;-82
2022/01/02 04:48:07;;;;;;;10.60;6.00;;;6.80;99.90;;;7.68;100.00;98468.97;5048702;28;20467;-82
2022/01/02 04:50:37;;;;;;;8.87;5.30;;;6.90;99.90;;;7.74;100.00;98464.94;5043724;28;20461;-82
2022/01/02 04:53:09;;;;;;;6.77;4.60;;;6.90;99.90;;;7.76;100.00;98461.19;5046100;28;21025;-82
2022/01/02 04:55:40;;;;;;;9.57;5.43;;;6.90;99.90;;;7.79;100.00;98452.25;5043379;28;20492;-82
2022/01/02 04:58:11;;;;;;;10.30;5.20;;;6.90;99.90;;;7.81;100.00;98453.72;5046922;28;20469;-82
2022/01/02 05:00:40;;;;;;;26.63;12.30;;;7.00;99.90;;;7.83;100.00;98456.16;5044365;28;20982;-80
2022/01/02 05:03:10;;;;;;;12.00;6.13;;;7.00;99.90;;;7.84;100.00;98463.00;5046666;28;20472;-82
2022/01/02 05:05:40;;;;;;;9.67;5.57;;;7.00;99.90;;;7.84;100.00;98466.44;5048333;28;20503;-82
2022/01/02 05:08:12;;;;;;;10.60;6.67;;;7.00;99.90;;;7.84;100.00;98463.81;5049095;28;20514;-82
2022/01/02 05:10:43;;;;;;;10.83;5.40;;;7.00;99.90;;;7.81;100.00;98468.53;5045262;28;20480;-81
2022/01/02 05:13:12;;;;;;;13.40;7.37;;;6.90;99.90;;;7.81;100.00;98463.34;5053287;28;20552;-82
2022/01/02 05:15:41;;;;;;;11.60;5.70;;;7.00;99.90;;;7.79;100.00;98465.25;5045563;28;20496;-82
2022/01/02 05:18:11;;;;;;;11.70;5.97;;;6.90;99.90;;;7.83;100.00;98450.97;5032569;28;21036;-78
2022/01/02 05:20:44;;;;;;;8.13;5.80;;;7.00;99.90;;;7.85;100.00;98460.22;5043304;28;21135;-81
2022/01/02 05:23:16;;;;;;;10.27;6.03;;;7.00;99.90;;;7.83;100.00;98456.16;5042750;28;20960;-78
2022/01/02 05:25:47;;;;;;;11.20;5.40;;;6.90;99.90;;;7.80;100.00;98459.91;5048131;28;20493;-79
2022/01/02 05:28:17;;;;;;;12.83;6.33;;;6.90;99.90;;;7.83;100.00;98445.75;5049256;28;20469;-78
2022/01/02 05:30:47;;;;;;;7.13;4.70;;;7.00;99.90;;;7.83;100.00;98443.97;5048724;28;20460;-77
2022/01/02 05:33:18;;;;;;;12.33;5.40;;;7.00;99.90;;;7.84;100.00;98442.19;5049100;28;20464;-78
2022/01/02 05:35:47;;;;;;;12.33;6.97;;;7.00;99.90;;;7.86;100.00;98435.00;5040746;28;21008;-78
2022/01/02 05:38:19;;;;;;;9.63;5.13;;;7.10;99.90;;;7.84;100.00;98440.41;5043019;28;20461;-77
2022/01/02 05:40:52;;;;;;;12.80;6.10;;;7.00;99.90;;;7.76;100.00;98439.56;5047604;28;20453;-78
2022/01/02 05:43:20;;;;;;;17.20;6.37;;;6.80;99.90;;;7.73;100.00;98434.66;5056434;28;20448;-78
2022/01/02 05:45:51;;;;;;;26.07;7.53;;;6.80;99.90;;;7.72;100.00;98435.63;5049384;28;20580;-78
2022/01/02 05:48:20;;;;;;;13.33;6.30;;;6.80;99.90;;;7.75;100.00;98440.50;5048265;28;20460;-78
2022/01/02 05:50:48;;;;;;;11.87;6.50;;;6.90;99.90;;;7.73;100.00;98439.88;5047715;28;20449;-78
2022/01/02 05:53:19;;;;;;;10.47;5.50;;;6.90;99.90;;;7.74;100.00;98431.09;5043898;28;20461;-78
2022/01/02 05:55:49;;;;;;;34.80;12.50;;;6.90;99.90;;;7.74;100.00;98411.06;5043184;28;20466;-79
2022/01/02 05:58:19;;;;;;;12.00;6.27;;;6.90;99.90;;;7.69;100.00;98404.72;5034759;28;20507;-78
2022/01/02 06:00:48;;;;;;;8.40;5.40;;;6.80;99.90;;;7.68;100.00;98406.50;5044896;28;20454;-78
2022/01/02 06:03:18;;;;;;;9.63;6.47;;;6.80;99.90;;;7.72;100.00;98413.03;5047499;28;20460;-78
2022/01/02 06:05:49;;;;;;;8.43;5.97;;;6.80;99.90;;;7.76;100.00;98410.91;5048048;28;20524;-79
2022/01/02 06:08:21;;;;;;;8.20;5.50;;;6.90;99.90;;;7.76;100.00;98408.31;5046457;28;20544;-78
2022/01/02 06:10:51;;;;;;;10.00;5.33;;;6.90;99.90;;;7.74;100.00;98416.28;5045487;28;20457;-78
2022/01/02 06:13:20;;;;;;;8.30;5.33;;;6.80;99.90;;;7.77;100.00;98415.16;5047243;28;20445;-78
2022/01/02 06:15:50;;;;;;;11.40;6.07;;;6.90;99.90;;;7.79;100.00;98403.59;5043649;28;20500;-78
2022/01/02 06:18:20;;;;;;;8.60;5.80;;;6.90;99.90;;;7.79;100.00;98410.59;5045504;28;20491;-78
2022/01/02 06:20:49;;;;;;;10.03;5.57;;;6.90;99.90;;;7.78;100.00;98401.97;5044923;28;20516;-78
2022/01/02 06:23:21;;;;;;;9.30;5.50;;;6.90;99.90;;;7.80;100.00;98407.03;5042170;28;20534;-78
2022/01/02 06:25:50;;;;;;;8.13;5.00;;;6.90;99.90;;;7.77;100.00;98405.56;5045224;28;20558;-78
2022/01/02 06:28:21;;;;;;;8.13;5.30;;;6.90;99.90;;;7.79;100.00;98408.00;5045667;28;20536;-78
2022/01/02 06:30:51;;;;;;;12.07;6.70;;;6.90;99.90;;;7.79;100.00;98408.81;5043364;28;20504;-79
2022/01/02 06:33:20;;;;;;;12.73;6.40;;;6.90;99.90;;;7.80;100.00;98410.44;5043250;28;20614;-78
2022/01/02 06:35:50;;;;;;;8.40;5.37;;;6.90;99.90;;;7.77;100.00;98400.38;5041797;28;20463;-80
2022/01/02 06:38:24;;;;;;;11.30;5.90;;;6.90;99.90;;;7.76;100.00;98397.91;5042106;28;20523;-78
2022/01/02 06:40:54;;;;;;;17.63;6.93;;;6.80;99.90;;;7.77;100.00;98405.56;5045881;28;20559;-78
2022/01/02 06:43:24;;;;;;;28.97;13.40;;;6.90;99.90;;;7.79;100.00;98415.81;5042222;28;21020;-78
2022/01/02 06:45:54;;;;;;;15.00;6.87;;;7.00;99.90;;;7.79;100.00;98408.00;5043359;28;21001;-78
2022/01/02 06:48:25;;;;;;;8.00;5.50;;;7.00;99.90;;;7.77;100.00;98417.75;5044807;28;20468;-78
2022/01/02 06:50:56;;;;;;;10.03;5.43;;;7.00;99.90;;;7.75;100.00;98417.09;5044200;28;20468;-78
2022/01/02 06:53:27;;;;;;;10.20;5.90;;;6.90;99.90;;;7.79;100.00;98408.00;5045552;28;20465;-78
2022/01/02 06:55:58;;;;;;;9.37;5.77;;;6.90;99.90;;;7.81;100.00;98404.25;5043740;28;20983;-78
2022/01/02 06:58:29;;;;;;;10.67;5.90;;;6.90;99.90;;;7.84;100.00;98400.53;5043485;28;20818;-78
2022/01/02 07:00:59;;;;;;;9.80;5.03;;;7.00;99.90;;;7.82;100.00;98399.84;5047074;28;20453;-78
2022/01/02 07:03:29;;;;;;;11.23;6.20;;;6.90;99.90;;;7.79;100.00;98397.56;5047172;28;20849;-77
2022/01/02 07:06:00;;;;;;;10.20;5.97;;;6.80;99.90;;;7.70;100.00;98377.72;5038256;28;20488;-78
2022/01/02 07:08:32;;;;;;;10.73;5.60;;;6.70;99.90;;;7.76;100.00;98379.69;5046405;28;20461;-78
2022/01/02 07:11:05;;;;;;;11.83;6.40;;;6.80;99.90;;;7.76;100.00;98387.50;5039368;28;20469;-78
2022/01/02 07:13:36;;;;;;;12.17;6.33;;;6.80;99.90;;;7.76;100.00;98382.28;5043533;28;20465;-78
2022/01/02 07:16:06;;;;;;;9.60;5.70;;;6.90;99.90;;;7.74;100.00;98372.03;5044439;28;21325;-78
2022/01/02 07:18:36;;;;;;;13.50;6.50;;;6.90;99.90;;;7.74;100.00;98363.44;5046009;28;20453;-78
2022/01/02 07:21:06;;;;;;;15.07;5.80;;;6.80;99.90;;;7.79;100.00;98366.34;5037901;28;21018;-77
2022/01/02 07:23:37;;;;;;;8.70;5.60;;;6.90;99.90;;;7.79;100.00;98367.16;5050485;28;20523;-78
2022/01/02 07:26:06;;;;;;;9.30;5.40;;;6.90;99.90;;;7.75;100.00;98380.66;5049388;28;20511;-78
2022/01/02 07:28:35;;;;;;;8.43;5.40;;;6.90;99.90;;;7.76;100.00;98377.91;5048612;28;20461;-78
2022/01/02 07:31:06;;;;;;;10.20;4.67;;;6.90;99.90;;;7.76;100.00;98377.91;5043357;28;20480;-78
2022/01/02 07:33:36;;;;;;;8.77;5.10;;;6.80;99.90;;;7.78;100.00;98380.31;5048112;28;20983;-78
2022/01/02 07:36:05;;;;;;;6.50;4.77;;;6.90;99.90;;;7.79;100.00;98371.56;5049847;28;20465;-78
2022/01/02 07:38:37;;;;;;;8.40;4.90;;;6.90;99.90;;;7.82;100.00;98371.22;5048152;28;20453;-78
2022/01/02 07:41:08;;;;;;;9.73;5.13;;;6.90;99.90;;;7.85;100.00;98373.50;5048968;28;20552;-78
2022/01/02 07:43:38;;;;;;;12.30;5.83;;;7.00;99.90;;;7.85;100.00;98370.91;5047102;28;20934;-79
2022/01/02 07:46:08;;;;;;;7.30;4.90;;;7.00;99.90;;;7.80;100.00;98373.19;5053220;28;20520;-79
2022/01/02 07:48:38;;;;;;;7.83;4.70;;;7.00;99.90;;;7.78;100.00;98372.50;5050859;28;20457;-78
2022/01/02 07:51:08;;;;;;;9.37;5.90;;;6.90;99.90;;;7.82;100.00;98368.63;5057396;28;20486;-78
2022/01/02 07:53:40;;;;;;;7.87;4.97;;;6.90;99.90;;;7.83;100.00;98358.06;5051337;28;20463;-78
2022/01/02 07:56:10;;;;;;;11.10;5.70;;;7.00;99.90;;;7.84;100.00;98361.47;5046786;28;20453;-78
2022/01/02 07:58:39;;;;;;;11.33;5.53;;;7.00;99.90;;;7.83;100.00;98354.63;5043780;28;20515;-78
2022/01/02 08:01:09;;;;;;;8.93;5.67;;;7.10;99.90;;;7.85;100.00;98340.47;5045310;28;20461;-79
2022/01/02 08:03:39;;;;;;;12.60;5.07;;;7.00;99.90;;;7.89;100.00;98348.78;5049642;28;20464;-79
2022/01/02 08:06:08;;;;;;;8.90;5.60;;;7.10;99.90;;;7.91;100.00;98344.25;5046395;28;20492;-80
2022/01/02 08:08:41;;;;;;;14.30;5.83;;;7.10;99.90;;;7.88;100.00;98344.56;5048444;28;20461;-78
2022/01/02 08:11:11;;;;;;;11.37;6.80;;;7.10;99.90;;;7.89;100.00;98335.75;5041481;28;20474;-79
2022/01/02 08:13:41;;;;;;;8.93;4.97;;;7.10;99.90;;;7.86;100.00;98331.69;5053952;28;20453;-78
2022/01/02 08:16:12;;;;;;;9.03;6.10;;;7.00;99.90;;;7.90;100.00;98343.41;5040923;28;20962;-79
2022/01/02 08:18:45;;;;;;;11.80;5.27;;;7.10;99.90;;;7.95;100.00;98340.31;5041088;28;20508;-79
2022/01/02 08:21:15;;;;;;;8.00;4.77;;;7.10;99.90;;;7.96;100.00;98336.72;5045454;28;20488;-79
2022/01/02 08:23:46;;;;;;;6.57;5.00;;;7.20;99.90;;;7.98;100.00;98332.19;5047246;28;20465;-77
2022/01/02 08:26:23;;;;;;;8.23;5.73;;;7.10;99.90;;;8.01;100.00;98329.25;5049744;28;20492;-78
2022/01/02 08:28:54;;;;;;;12.27;5.10;;;7.10;99.90;;;7.99;100.00;98324.19;5051741;28;20552;-78
2022/01/02 08:31:24;;;;;;;7.13;4.70;;;7.10;99.90;;;7.99;100.00;98315.56;5050174;28;20480;-78
2022/01/02 08:33:55;;;;;;;10.53;5.43;;;7.10;99.90;;;8.04;100.00;98319.34;5040699;28;20469;-79
2022/01/02 08:36:26;;;;;;;10.23;5.50;;;7.20;99.90;;;8.03;100.00;98322.09;5046337;28;20457;-79
2022/01/02 08:38:58;;;;;;;12.40;5.77;;;7.20;99.90;;;8.02;100.00;98317.84;5045500;28;20461;-80
2022/01/02 08:41:26;;;;;;;10.03;5.00;;;7.20;99.90;;;8.03;100.00;98330.72;5042605;28;20506;-78
2022/01/02 08:43:57;;;;;;;6.90;5.73;;;7.20;99.90;;;8.08;100.00;98320.63;5048094;28;20491;-78
2022/01/02 08:46:26;;;;;;;7.90;4.70;;;7.20;99.90;;;8.08;100.00;98331.06;5040673;28;20497;-78
2022/01/02 08:48:56;;;;;;;10.83;5.27;;;7.20;99.90;;;8.12;100.00;98334.16;5049975;28;20441;-79
2022/01/02 08:51:27;;;;;;;7.97;5.27;;;7.30;99.90;;;8.16;100.00;98321.59;5050393;28;20508;-78
2022/01/02 08:53:58;;;;;;;9.83;5.30;;;7.40;99.90;;;8.21;100.00;98330.53;5049799;28;20461;-78
2022/01/02 08:56:29;;;;;;;14.97;5.77;;;7.40;99.90;;;8.26;100.00;98354.28;5050553;28;21086;-79
2022/01/02 08:58:59;;;;;;;7.93;5.60;;;7.40;99.90;;;8.27;100.00;98345.50;5049805;28;20830;-78
2022/01/02 09:01:28;;;;;;;6.83;4.83;;;7.50;99.90;;;8.26;100.00;98338.66;5050623;28;20801;-78
2022/01/02 09:03:59;;;;;;;7.13;4.87;;;7.70;99.90;;;8.29;100.00;98329.75;5049810;28;20502;-78
2022/01/02 09:06:31;;;;;;;7.77;5.10;;;7.70;99.90;;;8.34;100.00;98359.53;5049661;28;20488;-81
2022/01/02 09:09:03;;;;;;;9.43;6.17;;;7.80;99.90;;;8.34;100.00;98356.91;5042855;28;20510;-78
2022/01/02 09:11:33;;;;;;;7.47;5.10;;;7.80;99.90;;;8.39;100.00;98366.84;5045956;28;20471;-78
2022/01/02 09:14:03;;;;;;;7.90;5.13;;;7.90;99.90;;;8.41;100.00;98376.13;5038016;28;20453;-79
2022/01/02 09:16:33;;;;;;;9.30;5.30;;;7.90;99.90;;;8.41;100.00;98365.72;5049376;28;20445;-79
2022/01/02 09:19:02;;;;;;;7.40;4.60;;;7.90;99.90;;;8.45;100.00;98363.59;5049255;28;20453;-79
2022/01/02 09:21:31;;;;;;;11.60;5.30;;;7.90;99.90;;;8.51;100.00;98384.59;5050573;28;20556;-79
2022/01/02 09:24:02;;;;;;;8.37;4.43;;;8.00;99.90;;;8.56;100.00;98364.06;5044465;28;20446;-78
2022/01/02 09:26:32;;;;;;;6.00;4.47;;;8.00;99.90;;;8.58;100.00;98372.50;5048451;28;20500;-79
2022/01/02 09:29:03;;;;;;;7.13;4.37;;;8.10;99.90;;;8.61;100.00;98357.53;5049785;28;20445;-79
2022/01/02 09:31:34;;;;;;;5.27;4.23;;;8.20;99.90;;;8.55;100.00;98346.78;5048973;28;20473;-79
2022/01/02 09:34:08;;;;;;;5.87;4.30;;;8.00;99.90;;;8.62;100.00;98353.94;5043814;28;20470;-78
2022/01/02 09:36:39;;;;;;;4.03;3.63;;;8.10;99.90;;;8.62;100.00;98344.31;5044116;28;20500;-79
2022/01/02 09:39:11;;;;;;;6.90;4.10;;;8.00;99.90;;;8.65;100.00;98335.34;5048885;28;20436;-79
2022/01/02 09:41:41;;;;;;;6.70;4.40;;;8.00;99.90;;;8.71;100.00;98324.28;5049296;28;20472;-78
2022/01/02 09:44:11;;;;;;;7.33;4.40;;;8.20;99.90;;;8.70;100.00;98320.03;5048957;28;20457;-78
2022/01/02 09:46:42;;;;;;;7.80;4.77;;;8.20;99.90;;;8.75;100.00;98315.09;5049354;28;20488;-78
2022/01/02 09:49:13;;;;;;;7.93;4.47;;;8.10;99.90;;;8.76;100.00;98322.78;5048793;28;20453;-78
2022/01/02 09:51:43;;;;;;;9.30;4.10;;;8.10;99.90;;;8.84;100.00;98316.72;5042388;28;20445;-79
2022/01/02 09:54:14;;;;;;;5.43;3.77;;;8.30;99.90;;;8.85;100.00;98300.09;5049165;28;20441;-78
2022/01/02 09:56:43;;;;;;;7.57;4.37;;;8.30;99.90;;;8.91;100.00;98294.19;5049472;28;20449;-79
2022/01/02 09:59:13;;;;;;;10.73;4.13;;;8.30;99.90;;;8.95;100.00;98293.69;5045653;28;20487;-79
2022/01/02 10:01:43;;;;;;;5.13;4.13;;;8.30;99.90;;;9.01;100.00;98284.38;5049218;28;20480;-78
2022/01/02 10:04:12;;;;;;;10.37;4.57;;;8.50;99.90;;;9.02;100.00;98272.97;5047561;28;20457;-78
2022/01/02 10:06:47;;;;;;;7.33;4.20;;;8.40;99.90;;;9.06;100.00;98266.38;5042302;28;20894;-78
2022/01/02 10:09:31;;;;;;;7.20;4.10;;;8.50;99.90;;;9.07;100.00;98250.59;5046658;28;20451;-78
2022/01/02 10:12:26;;;;;;;7.23;4.60;;;8.60;99.90;;;9.10;100.00;98254.63;5047562;28;20449;-78
2022/01/02 10:15:26;;;;;;;4.57;3.50;;;8.60;99.90;;;9.11;100.00;98235.41;5051408;28;20831;-79
2022/01/02 10:18:02;;;;;;;6.03;3.63;;;8.60;99.90;;;9.14;100.00;98231.63;4998065;28;20940;-78
2022/01/02 10:20:36;;;;;;;7.70;4.07;;;8.60;99.90;;;9.09;100.00;98243.38;5041856;28;21043;-79
2022/01/02 10:23:16;;;;;;;6.53;3.40;;;8.50;99.90;;;9.11;100.00;98224.97;5047912;28;20438;-79
2022/01/02 10:25:51;;;;;;;10.10;6.60;;;8.60;99.90;;;9.13;100.00;98233.41;5049697;28;20479;-78
2022/01/02 10:28:32;;;;;;;6.17;3.90;;;8.50;99.90;;;9.17;100.00;98247.75;5045784;28;20492;-79
2022/01/02 10:31:07;;;;;;;4.80;3.70;;;8.60;99.90;;;9.22;100.00;98232.41;5048350;28;20461;-79
2022/01/02 10:33:51;;;;;;;5.57;4.20;;;8.70;99.90;;;9.24;100.00;98206.94;5039553;28;20544;-79
2022/01/02 10:36:29;;;;;;;7.53;4.50;;;8.70;99.90;;;9.21;100.00;98194.25;5048498;28;20503;-79
2022/01/02 10:39:04;;;;;;;6.33;3.93;;;8.60;99.90;;;9.27;100.00;98209.19;5048709;28;20441;-79
2022/01/02 10:41:38;;;;;;;7.43;4.83;;;8.70;99.90;;;9.29;100.00;98217.66;5041417;28;20449;-79
2022/01/02 10:44:29;;;;;;;6.00;4.00;;;8.80;99.90;;;9.30;100.00;98229.72;5041044;28;20460;-79